Time;durP1;ratioP1;P1;durP2;ratioP2;P2;SDS_P1;SDS_P2;PMS_P1;PMS_P2;Temp;Humidity;BMP_temperature;BMP_pressure;BME280_temperature;BME280_humidity;BME280_pressure;Samples;Min_cycle;Max_cycle;Signal;HPM_P1;HPM_P2
2023/09/11 00:02:12;;;;;;;17.10;15.30;;;22.30;99.90;;;;;;5012672;28;20284;-66
2023/09/11 00:04:37;;;;;;;16.50;14.70;;;22.30;99.90;;;;;;5011953;28;20183;-66
2023/09/11 00:07:03;;;;;;;18.70;16.70;;;22.30;99.90;;;;;;5011934;28;20171;-65
2023/09/11 00:09:29;;;;;;;18.13;16.43;;;22.30;99.90;;;;;;5012238;28;20175;-64
2023/09/11 00:11:55;;;;;;;16.93;15.13;;;22.20;99.90;;;;;;5001645;28;20648;-66
2023/09/11 00:14:20;;;;;;;17.47;15.90;;;22.20;99.90;;;;;;5009686;28;20233;-66
2023/09/11 00:16:46;;;;;;;16.70;15.27;;;22.20;99.90;;;;;;5015953;28;20200;-66
2023/09/11 00:19:13;;;;;;;17.57;15.87;;;22.20;99.90;;;;;;5016366;28;20179;-66
2023/09/11 00:21:39;;;;;;;17.30;15.70;;;22.10;99.90;;;;;;5016106;28;20495;-65
2023/09/11 00:24:05;;;;;;;17.97;16.20;;;22.10;99.90;;;;;;5016520;28;20186;-66
2023/09/11 00:26:31;;;;;;;17.33;15.50;;;22.10;99.90;;;;;;5016029;28;20171;-65
2023/09/11 00:28:57;;;;;;;17.33;15.87;;;22.10;99.90;;;;;;5016836;28;20414;-66
2023/09/11 00:31:22;;;;;;;18.17;16.10;;;22.10;99.90;;;;;;5016078;28;20924;-66
2023/09/11 00:33:48;;;;;;;18.43;16.83;;;22.10;99.90;;;;;;5015936;28;20258;-66
2023/09/11 00:36:14;;;;;;;17.20;15.53;;;22.10;99.90;;;;;;5015051;28;20602;-66
2023/09/11 00:38:40;;;;;;;17.27;15.57;;;22.10;99.90;;;;;;5015338;28;20225;-65
2023/09/11 00:41:05;;;;;;;16.87;15.37;;;22.10;99.90;;;;;;5016257;28;20233;-66
2023/09/11 00:43:31;;;;;;;17.10;15.30;;;22.10;99.90;;;;;;5001406;28;20188;-65
2023/09/11 00:45:57;;;;;;;16.30;14.77;;;22.00;99.90;;;;;;5014268;28;20647;-66
2023/09/11 00:48:24;;;;;;;17.47;15.40;;;22.00;99.90;;;;;;5006302;28;20187;-66
2023/09/11 00:50:54;;;;;;;18.00;15.90;;;22.00;99.90;;;;;;5005712;28;20779;-65
2023/09/11 00:53:20;;;;;;;15.50;14.07;;;21.90;99.90;;;;;;5016188;28;20399;-65
2023/09/11 00:55:47;;;;;;;15.70;14.07;;;21.90;99.90;;;;;;5005346;28;20426;-65
2023/09/11 00:58:17;;;;;;;18.17;16.27;;;21.90;99.90;;;;;;4999947;28;20464;-66
2023/09/11 01:00:46;;;;;;;16.00;14.27;;;21.90;99.90;;;;;;5015267;28;20449;-66
2023/09/11 01:03:12;;;;;;;16.57;14.97;;;21.90;99.90;;;;;;5015494;28;20488;-66
2023/09/11 01:05:38;;;;;;;16.23;14.70;;;21.90;99.90;;;;;;5013784;28;20418;-66
2023/09/11 01:08:04;;;;;;;18.37;16.40;;;21.80;99.90;;;;;;5014798;28;20489;-66
2023/09/11 01:10:30;;;;;;;15.90;14.60;;;21.80;99.90;;;;;;5015118;28;20434;-66
2023/09/11 01:12:56;;;;;;;16.73;15.33;;;21.80;99.90;;;;;;5013985;28;20425;-66
2023/09/11 01:15:28;;;;;;;16.30;14.80;;;21.80;99.90;;;;;;5003139;28;20427;-65
2023/09/11 01:18:06;;;;;;;16.53;14.93;;;21.80;99.90;;;;;;4995530;28;20499;-66
2023/09/11 01:20:38;;;;;;;17.53;15.77;;;21.80;99.90;;;;;;4995794;28;20474;-62
2023/09/11 01:23:28;;;;;;;17.63;15.90;;;21.70;99.90;;;;;;5003367;28;20432;-66
2023/09/11 01:26:20;;;;;;;16.27;14.60;;;21.70;99.90;;;;;;5014568;28;20726;-66
2023/09/11 01:29:05;;;;;;;17.87;15.87;;;21.70;99.90;;;;;;4995308;28;20417;-66
2023/09/11 01:31:33;;;;;;;15.77;14.37;;;21.70;99.90;;;;;;5011509;28;20442;-66
2023/09/11 01:34:04;;;;;;;17.63;15.77;;;21.70;99.90;;;;;;5007156;28;20444;-66
2023/09/11 01:36:30;;;;;;;15.53;14.13;;;21.60;99.90;;;;;;4995681;28;20407;-66
2023/09/11 01:38:56;;;;;;;17.70;15.30;;;21.60;99.90;;;;;;5013562;28;20544;-66
2023/09/11 01:41:30;;;;;;;17.70;15.93;;;21.70;99.90;;;;;;5014485;28;20457;-66
2023/09/11 01:44:00;;;;;;;16.40;14.83;;;21.60;99.90;;;;;;5014548;28;20839;-66
2023/09/11 01:46:27;;;;;;;16.23;14.67;;;21.60;99.90;;;;;;5002296;28;20426;-66
2023/09/11 01:48:54;;;;;;;16.47;14.87;;;21.60;99.90;;;;;;5003142;28;20440;-66
2023/09/11 01:51:22;;;;;;;15.33;14.10;;;21.60;99.90;;;;;;5015059;28;20492;-66
2023/09/11 01:53:48;;;;;;;16.60;15.20;;;21.60;99.90;;;;;;5028849;28;20429;-66
2023/09/11 01:56:15;;;;;;;16.23;14.63;;;21.60;99.90;;;;;;5010054;28;20434;-66
2023/09/11 01:58:43;;;;;;;16.53;15.20;;;21.60;99.90;;;;;;5013746;28;20846;-66
2023/09/11 02:01:09;;;;;;;15.67;14.40;;;21.60;99.90;;;;;;5014303;28;21039;-66
2023/09/11 02:03:35;;;;;;;16.10;14.43;;;21.60;99.90;;;;;;4999029;28;20431;-61
2023/09/11 02:06:00;;;;;;;16.93;15.23;;;21.60;99.90;;;;;;5013037;28;20171;-66
2023/09/11 02:08:26;;;;;;;15.63;14.30;;;21.60;99.90;;;;;;5013449;28;20256;-66
2023/09/11 02:10:53;;;;;;;15.80;14.50;;;21.50;99.90;;;;;;5012411;28;20707;-66
2023/09/11 02:13:19;;;;;;;16.20;14.70;;;21.60;99.90;;;;;;5007708;28;20437;-66
2023/09/11 02:15:45;;;;;;;16.80;15.13;;;21.50;99.90;;;;;;4994193;28;20472;-66
2023/09/11 02:18:11;;;;;;;17.03;15.37;;;21.50;99.90;;;;;;5009209;28;20477;-66
2023/09/11 02:20:37;;;;;;;16.60;14.90;;;21.50;99.90;;;;;;5013254;28;20210;-65
2023/09/11 02:23:02;;;;;;;16.33;14.90;;;21.50;99.90;;;;;;5014952;28;20627;-66
2023/09/11 02:25:28;;;;;;;18.23;15.50;;;21.50;99.90;;;;;;5012734;28;20183;-66
2023/09/11 02:27:54;;;;;;;14.77;13.57;;;21.50;99.90;;;;;;5013514;28;20199;-66
2023/09/11 02:30:20;;;;;;;15.63;14.03;;;21.40;99.90;;;;;;5013957;28;20175;-66
2023/09/11 02:32:45;;;;;;;16.47;14.90;;;21.40;99.90;;;;;;5013711;28;20540;-66
2023/09/11 02:35:11;;;;;;;16.83;15.43;;;21.40;99.90;;;;;;5013776;28;20213;-66
2023/09/11 02:37:37;;;;;;;16.40;14.80;;;21.40;99.90;;;;;;5013539;28;20229;-62
2023/09/11 02:40:03;;;;;;;17.13;15.77;;;21.40;99.90;;;;;;5012226;28;20207;-66
2023/09/11 02:42:29;;;;;;;17.07;15.43;;;21.40;99.90;;;;;;5013331;28;20208;-66
2023/09/11 02:44:54;;;;;;;16.70;15.10;;;21.40;99.90;;;;;;5013409;28;20467;-66
2023/09/11 02:47:20;;;;;;;16.77;15.17;;;21.30;99.90;;;;;;5011746;28;20180;-66
2023/09/11 02:49:46;;;;;;;16.30;14.80;;;21.30;99.90;;;;;;5013358;28;20274;-66
2023/09/11 02:52:11;;;;;;;16.50;14.90;;;21.30;99.90;;;;;;5013836;28;20178;-66
2023/09/11 02:54:37;;;;;;;16.70;14.77;;;21.30;99.90;;;;;;5013810;28;20628;-62
2023/09/11 02:57:03;;;;;;;16.87;15.10;;;21.30;99.90;;;;;;5013446;28;20257;-66
2023/09/11 02:59:29;;;;;;;16.37;14.77;;;21.30;99.90;;;;;;5010495;28;20491;-66
2023/09/11 03:01:55;;;;;;;15.20;14.00;;;21.30;99.90;;;;;;5007489;28;20425;-66
2023/09/11 03:04:21;;;;;;;17.40;15.30;;;21.30;99.90;;;;;;5013022;28;20180;-66
2023/09/11 03:06:46;;;;;;;16.00;14.63;;;21.30;99.90;;;;;;5012299;28;20557;-66
2023/09/11 03:09:12;;;;;;;17.60;15.13;;;21.30;99.90;;;;;;5013165;28;20272;-66
2023/09/11 03:11:38;;;;;;;15.83;14.33;;;21.30;99.90;;;;;;5013129;28;20195;-61
2023/09/11 03:14:04;;;;;;;15.77;14.30;;;21.20;99.90;;;;;;5013112;28;20429;-66
2023/09/11 03:16:30;;;;;;;17.10;15.57;;;21.20;99.90;;;;;;4994387;28;20180;-66
2023/09/11 03:18:56;;;;;;;15.60;14.40;;;21.20;99.90;;;;;;5002658;28;20210;-66
2023/09/11 03:21:21;;;;;;;16.77;15.00;;;21.20;99.90;;;;;;5009712;28;20234;-66
2023/09/11 03:23:47;;;;;;;18.03;16.13;;;21.20;99.90;;;;;;4992298;28;20227;-66
2023/09/11 03:26:16;;;;;;;16.17;14.50;;;21.20;99.90;;;;;;5004272;28;20174;-66
2023/09/11 03:28:48;;;;;;;17.43;15.80;;;21.20;99.90;;;;;;5009329;28;20179;-67
2023/09/11 03:31:15;;;;;;;17.70;15.90;;;21.20;99.90;;;;;;5012614;28;20418;-66
2023/09/11 03:33:41;;;;;;;16.27;14.67;;;21.20;99.90;;;;;;5012165;28;20476;-64
2023/09/11 03:36:06;;;;;;;17.70;15.87;;;21.20;99.90;;;;;;5013156;28;20405;-66
2023/09/11 03:38:32;;;;;;;15.80;14.27;;;21.20;99.90;;;;;;5012976;28;20671;-65
2023/09/11 03:40:58;;;;;;;16.67;15.00;;;21.20;99.90;;;;;;5003969;28;20618;-65
2023/09/11 03:43:24;;;;;;;14.50;13.17;;;21.20;99.90;;;;;;5002443;28;20671;-65
2023/09/11 03:45:50;;;;;;;15.57;14.03;;;21.20;99.90;;;;;;4997449;28;20426;-65
2023/09/11 03:48:16;;;;;;;15.93;14.43;;;21.20;99.90;;;;;;5007630;28;20186;-65
2023/09/11 03:50:41;;;;;;;17.30;15.47;;;21.10;99.90;;;;;;5009875;28;20422;-61
2023/09/11 03:53:07;;;;;;;15.33;13.97;;;21.10;99.90;;;;;;5012873;28;20179;-66
2023/09/11 03:55:33;;;;;;;15.83;14.33;;;21.10;99.90;;;;;;5006849;28;20306;-66
2023/09/11 03:57:59;;;;;;;16.57;14.53;;;21.10;99.90;;;;;;4996880;28;20175;-66
2023/09/11 04:00:25;;;;;;;15.03;13.70;;;21.10;99.90;;;;;;5007484;28;20805;-66
2023/09/11 04:02:51;;;;;;;18.67;15.43;;;21.10;99.90;;;;;;5003213;28;20434;-66
2023/09/11 04:05:16;;;;;;;15.77;14.43;;;21.10;99.90;;;;;;5012793;28;20186;-66
2023/09/11 04:07:42;;;;;;;15.70;14.30;;;21.10;99.90;;;;;;5010006;28;20214;-64
2023/09/11 04:10:08;;;;;;;15.07;13.77;;;21.10;99.90;;;;;;5012599;28;20635;-66
2023/09/11 04:12:34;;;;;;;15.33;13.63;;;21.10;99.90;;;;;;4993036;28;20225;-66
2023/09/11 04:15:01;;;;;;;15.60;14.20;;;21.10;99.90;;;;;;5000710;28;21027;-66
2023/09/11 04:17:27;;;;;;;15.10;13.50;;;21.10;99.90;;;;;;5012034;28;20429;-66
2023/09/11 04:19:52;;;;;;;14.80;13.50;;;21.10;99.90;;;;;;5010827;28;20234;-66
2023/09/11 04:22:18;;;;;;;14.33;12.90;;;21.00;99.90;;;;;;5012191;28;20541;-67
2023/09/11 04:24:44;;;;;;;19.00;14.83;;;21.00;99.90;;;;;;5012019;28;20252;-65
2023/09/11 04:27:10;;;;;;;16.03;14.43;;;21.00;99.90;;;;;;4994309;28;20176;-66
2023/09/11 04:29:36;;;;;;;17.07;15.30;;;21.00;99.90;;;;;;5000997;28;20513;-66
2023/09/11 04:32:02;;;;;;;17.07;14.60;;;21.00;99.90;;;;;;5011339;28;20187;-66
2023/09/11 04:34:27;;;;;;;16.97;14.60;;;21.00;99.90;;;;;;5011075;28;20203;-66
2023/09/11 04:36:53;;;;;;;16.40;14.60;;;21.00;99.90;;;;;;5010865;28;20464;-66
2023/09/11 04:39:22;;;;;;;18.03;16.37;;;21.00;99.90;;;;;;5011364;28;20712;-65
2023/09/11 04:41:48;;;;;;;16.50;14.73;;;21.00;99.90;;;;;;4992239;28;20211;-65
2023/09/11 04:44:13;;;;;;;16.17;14.77;;;21.00;99.90;;;;;;4997821;28;20553;-66
2023/09/11 04:46:39;;;;;;;15.37;13.67;;;21.00;99.90;;;;;;5007556;28;20305;-66
2023/09/11 04:49:05;;;;;;;17.80;13.83;;;21.00;99.90;;;;;;5011460;28;20179;-66
2023/09/11 04:51:33;;;;;;;15.33;13.90;;;21.00;99.90;;;;;;5010916;28;20205;-65
2023/09/11 04:53:59;;;;;;;15.50;14.03;;;20.90;99.90;;;;;;5010793;28;20171;-65
2023/09/11 04:56:25;;;;;;;16.10;14.60;;;20.90;99.90;;;;;;4995008;28;20793;-66
2023/09/11 04:58:51;;;;;;;16.93;13.60;;;20.90;99.90;;;;;;4998532;28;20254;-64
2023/09/11 05:01:16;;;;;;;16.20;14.57;;;20.90;99.90;;;;;;5014696;28;20207;-65
2023/09/11 05:03:42;;;;;;;17.00;14.97;;;20.90;99.90;;;;;;5015573;28;20310;-65
2023/09/11 05:06:08;;;;;;;15.57;14.10;;;20.80;99.90;;;;;;5013800;28;20182;-65
2023/09/11 05:08:34;;;;;;;17.00;15.60;;;20.90;99.90;;;;;;5015137;28;20179;-66
2023/09/11 05:11:01;;;;;;;17.27;15.53;;;20.90;99.90;;;;;;5013513;28;20242;-64
2023/09/11 05:13:27;;;;;;;19.63;15.33;;;20.90;99.90;;;;;;5015326;28;20201;-65
2023/09/11 05:15:53;;;;;;;16.27;14.67;;;20.90;99.90;;;;;;5004134;28;20418;-64
2023/09/11 05:18:19;;;;;;;18.60;16.70;;;20.90;99.90;;;;;;5014633;28;20175;-65
2023/09/11 05:20:46;;;;;;;17.40;15.60;;;20.80;99.90;;;;;;5008145;28;20214;-66
2023/09/11 05:23:12;;;;;;;18.77;16.97;;;20.80;99.90;;;;;;5012999;28;20713;-66
2023/09/11 05:25:37;;;;;;;19.27;16.40;;;20.90;99.90;;;;;;5007184;28;20501;-62
2023/09/11 05:28:03;;;;;;;17.90;16.13;;;21.10;99.90;;;;;;4994176;28;20235;-62
2023/09/11 05:30:29;;;;;;;17.73;16.07;;;21.20;99.90;;;;;;4996559;28;20171;-62
2023/09/11 05:32:55;;;;;;;18.17;16.37;;;21.20;99.90;;;;;;5014035;28;20417;-61
2023/09/11 05:35:21;;;;;;;19.13;17.20;;;21.20;99.90;;;;;;5015188;28;20171;-62
2023/09/11 05:37:47;;;;;;;19.50;16.33;;;21.20;99.90;;;;;;5013619;28;20297;-59
2023/09/11 05:40:13;;;;;;;17.50;15.97;;;21.20;99.90;;;;;;5014336;28;20449;-61
2023/09/11 05:42:39;;;;;;;17.53;15.90;;;21.10;99.90;;;;;;5014469;28;20468;-62
2023/09/11 05:45:06;;;;;;;21.20;15.03;;;21.10;99.90;;;;;;5014346;28;20167;-62
2023/09/11 05:47:32;;;;;;;16.70;15.30;;;21.10;99.90;;;;;;5014944;28;20175;-62
2023/09/11 05:50:00;;;;;;;16.70;15.10;;;21.10;99.90;;;;;;5013232;28;20761;-61
2023/09/11 05:52:29;;;;;;;16.57;15.00;;;21.10;99.90;;;;;;5013587;28;21068;-61
2023/09/11 05:54:55;;;;;;;17.67;16.17;;;21.20;99.90;;;;;;5014386;28;20453;-61
2023/09/11 05:57:21;;;;;;;20.23;17.10;;;21.10;99.90;;;;;;5013748;28;20402;-62
2023/09/11 05:59:47;;;;;;;17.77;15.97;;;21.20;99.90;;;;;;5014406;28;20171;-61
2023/09/11 06:02:13;;;;;;;18.17;15.50;;;21.20;99.90;;;;;;5013624;28;20250;-62
2023/09/11 06:04:38;;;;;;;16.77;14.53;;;21.20;99.90;;;;;;5014460;28;20183;-62
2023/09/11 06:07:04;;;;;;;24.60;15.57;;;21.20;99.90;;;;;;5013414;28;20182;-62
2023/09/11 06:09:30;;;;;;;15.33;13.87;;;21.30;99.90;;;;;;5014115;28;20187;-62
2023/09/11 06:11:57;;;;;;;17.30;15.47;;;21.30;99.90;;;;;;5013152;28;20243;-62
2023/09/11 06:14:23;;;;;;;18.70;16.70;;;21.30;99.90;;;;;;5013316;28;20410;-63
2023/09/11 06:16:50;;;;;;;19.70;16.40;;;21.30;99.90;;;;;;5014628;28;20437;-63
2023/09/11 06:19:16;;;;;;;24.43;17.20;;;21.40;99.90;;;;;;5013751;28;20426;-63
2023/09/11 06:21:45;;;;;;;19.60;16.37;;;21.40;99.90;;;;;;5014554;28;20468;-63
2023/09/11 06:24:14;;;;;;;17.87;16.00;;;21.50;99.90;;;;;;5013491;28;20410;-63
2023/09/11 06:26:42;;;;;;;16.43;14.87;;;21.50;99.90;;;;;;5014129;28;20425;-63
2023/09/11 06:29:07;;;;;;;16.93;15.23;;;21.50;99.90;;;;;;5012596;28;20468;-63
2023/09/11 06:31:33;;;;;;;21.77;17.23;;;21.60;99.90;;;;;;5012177;28;20442;-63
2023/09/11 06:33:59;;;;;;;17.53;15.50;;;21.60;99.90;;;;;;5012547;28;20552;-63
2023/09/11 06:36:25;;;;;;;16.87;15.17;;;21.60;99.90;;;;;;5012387;28;20190;-63
2023/09/11 06:38:51;;;;;;;15.63;14.10;;;21.70;99.90;;;;;;5007341;28;20466;-60
2023/09/11 06:41:17;;;;;;;17.10;15.30;;;21.70;99.90;;;;;;5011074;28;20290;-70
2023/09/11 06:43:43;;;;;;;16.77;15.27;;;21.80;99.90;;;;;;5009985;28;20517;-70
2023/09/11 06:46:08;;;;;;;15.60;14.03;;;22.00;99.90;;;;;;5006093;28;20685;-69
2023/09/11 06:48:34;;;;;;;16.27;14.73;;;22.20;99.90;;;;;;5007957;28;20202;-70
2023/09/11 06:51:00;;;;;;;20.33;16.27;;;22.40;99.90;;;;;;5010618;28;20232;-69
2023/09/11 06:53:26;;;;;;;15.03;12.90;;;22.60;99.90;;;;;;5013433;28;20202;-69
2023/09/11 06:55:52;;;;;;;16.27;13.83;;;22.80;99.90;;;;;;5011701;28;20638;-69
2023/09/11 06:58:17;;;;;;;16.50;14.90;;;23.00;99.90;;;;;;5011934;28;20179;-69
2023/09/11 07:00:43;;;;;;;14.13;12.77;;;23.10;99.90;;;;;;5012154;28;20809;-69
2023/09/11 07:03:09;;;;;;;15.47;13.97;;;23.20;99.90;;;;;;5011078;28;20547;-69
2023/09/11 07:05:38;;;;;;;18.93;14.40;;;23.30;99.90;;;;;;5011252;28;20430;-69
2023/09/11 07:08:04;;;;;;;18.00;13.10;;;23.40;99.90;;;;;;5006708;28;20179;-67
2023/09/11 07:10:30;;;;;;;14.30;12.83;;;23.60;99.90;;;;;;5011312;28;20434;-69
2023/09/11 07:12:55;;;;;;;14.13;12.83;;;23.60;99.90;;;;;;5012720;28;20638;-68
2023/09/11 07:15:21;;;;;;;13.30;12.10;;;23.70;99.90;;;;;;4995688;28;20263;-69
2023/09/11 07:17:48;;;;;;;15.30;13.70;;;23.80;99.90;;;;;;5012877;28;20670;-67
2023/09/11 07:20:15;;;;;;;15.53;13.53;;;23.80;99.90;;;;;;5011760;28;20605;-68
2023/09/11 07:22:41;;;;;;;18.80;14.93;;;23.90;99.90;;;;;;5012017;28;20422;-66
2023/09/11 07:25:14;;;;;;;15.97;14.00;;;24.00;99.90;;;;;;5011795;28;20433;-69
2023/09/11 07:27:40;;;;;;;16.17;14.47;;;24.00;99.90;;;;;;5012779;28;20159;-66
2023/09/11 07:30:09;;;;;;;15.93;14.23;;;24.00;99.90;;;;;;5011177;28;20468;-67
2023/09/11 07:32:34;;;;;;;17.67;14.70;;;24.10;99.90;;;;;;5010399;28;20685;-67
2023/09/11 07:35:00;;;;;;;16.63;14.77;;;24.10;99.90;;;;;;5010388;28;20421;-67
2023/09/11 07:37:26;;;;;;;16.57;14.93;;;24.20;99.90;;;;;;5012198;28;20210;-66
2023/09/11 07:39:52;;;;;;;17.37;14.20;;;24.20;99.90;;;;;;5011897;28;20175;-66
2023/09/11 07:42:17;;;;;;;19.63;14.63;;;24.20;99.90;;;;;;5009244;28;20214;-65
2023/09/11 07:44:43;;;;;;;18.20;16.23;;;24.30;99.90;;;;;;5009088;28;20171;-66
2023/09/11 07:47:09;;;;;;;17.73;15.97;;;24.30;99.90;;;;;;5011228;28;20171;-66
2023/09/11 07:49:35;;;;;;;16.73;14.07;;;24.30;99.90;;;;;;5011320;28;20201;-66
2023/09/11 07:52:01;;;;;;;16.80;15.10;;;24.40;99.90;;;;;;5007631;28;20179;-66
2023/09/11 07:54:27;;;;;;;17.40;14.83;;;24.40;99.90;;;;;;5012198;28;20917;-71
2023/09/11 07:56:53;;;;;;;25.40;19.00;;;24.50;99.90;;;;;;5011970;28;20178;-68
2023/09/11 07:59:19;;;;;;;21.23;19.10;;;24.50;99.90;;;;;;5011202;28;20430;-66
2023/09/11 08:01:44;;;;;;;24.43;21.90;;;24.50;99.90;;;;;;5011480;28;20202;-67
2023/09/11 08:04:10;;;;;;;132.60;108.23;;;24.60;99.90;;;;;;5012055;28;20174;-67
2023/09/11 08:06:36;;;;;;;273.00;245.17;;;24.70;99.90;;;;;;5009744;28;20243;-67
2023/09/11 08:09:03;;;;;;;39.33;34.73;;;24.70;99.90;;;;;;5011124;28;20225;-67
2023/09/11 08:11:31;;;;;;;25.33;22.37;;;24.80;99.90;;;;;;5009180;28;20190;-67
2023/09/11 08:13:57;;;;;;;41.33;33.83;;;24.80;99.90;;;;;;5011315;28;20426;-62
2023/09/11 08:16:23;;;;;;;88.10;78.63;;;24.90;99.90;;;;;;5011444;28;20418;-67
2023/09/11 08:18:49;;;;;;;156.30;139.43;;;24.90;99.90;;;;;;5010339;28;20414;-67
2023/09/11 08:21:15;;;;;;;88.10;77.23;;;24.90;99.90;;;;;;5010811;28;20461;-67
2023/09/11 08:23:44;;;;;;;39.57;33.63;;;25.00;99.90;;;;;;5011746;28;20615;-67
2023/09/11 08:26:10;;;;;;;31.87;28.57;;;25.00;99.90;;;;;;5006484;28;20258;-64
2023/09/11 08:28:37;;;;;;;49.53;42.83;;;25.10;99.90;;;;;;5012498;28;20418;-63
2023/09/11 08:31:03;;;;;;;30.70;27.70;;;25.10;99.90;;;;;;5011320;28;20483;-64
2023/09/11 08:33:29;;;;;;;35.77;32.17;;;25.20;99.90;;;;;;5012555;28;20756;-63
2023/09/11 08:35:55;;;;;;;30.80;27.40;;;25.20;99.90;;;;;;5014759;28;20638;-64
2023/09/11 08:38:21;;;;;;;17.53;14.97;;;25.30;99.90;;;;;;4995708;28;20455;-63
2023/09/11 08:40:47;;;;;;;14.17;12.77;;;25.30;99.90;;;;;;5008419;28;20975;-72
2023/09/11 08:43:13;;;;;;;14.17;12.87;;;25.30;99.90;;;;;;5014368;28;20190;-63
2023/09/11 08:45:39;;;;;;;18.40;15.93;;;25.30;99.90;;;;;;5015613;28;20678;-63
2023/09/11 08:48:13;;;;;;;16.67;13.70;;;25.30;99.90;;;;;;5014346;28;20433;-64
2023/09/11 08:50:53;;;;;;;20.87;16.77;;;25.30;99.90;;;;;;5013355;28;20925;-73
2023/09/11 08:53:21;;;;;;;14.90;13.40;;;25.40;99.90;;;;;;5013171;28;20890;-72
2023/09/11 08:55:47;;;;;;;20.77;18.40;;;25.50;99.90;;;;;;5015125;28;20962;-72
2023/09/11 08:58:16;;;;;;;33.80;30.27;;;25.60;99.90;;;;;;5013623;28;20413;-75
2023/09/11 09:00:42;;;;;;;15.47;14.03;;;25.60;99.90;;;;;;5015495;28;20456;-71
2023/09/11 09:03:08;;;;;;;280.87;218.23;;;25.70;99.90;;;;;;5013716;28;20762;-72
2023/09/11 09:05:35;;;;;;;32.63;23.80;;;25.80;99.90;;;;;;5015085;28;20417;-72
2023/09/11 09:08:04;;;;;;;16.13;12.90;;;25.80;99.90;;;;;;5015419;28;20725;-71
2023/09/11 09:10:30;;;;;;;25.63;21.43;;;25.90;99.90;;;;;;5013712;28;20430;-71
2023/09/11 09:12:57;;;;;;;10.97;9.97;;;25.90;99.90;;;;;;5010501;28;20421;-72
2023/09/11 09:15:24;;;;;;;19.43;15.80;;;26.00;99.90;;;;;;5014263;28;20410;-67
2023/09/11 09:17:50;;;;;;;13.40;12.03;;;26.20;99.90;;;;;;5002395;28;20179;-67
2023/09/11 09:20:17;;;;;;;11.97;11.00;;;26.30;99.90;;;;;;5013407;28;20473;-67
2023/09/11 09:22:57;;;;;;;9.27;8.47;;;26.40;99.90;;;;;;5015056;28;20504;-67
2023/09/11 09:25:23;;;;;;;10.77;9.73;;;26.70;99.90;;;;;;5013758;28;20422;-67
2023/09/11 09:27:50;;;;;;;18.67;16.93;;;26.90;99.90;;;;;;5014417;28;20512;-78
2023/09/11 09:30:32;;;;;;;21.50;19.10;;;27.20;99.90;;;;;;5013336;28;20431;-72
2023/09/11 09:32:58;;;;;;;15.90;11.60;;;27.30;99.90;;;;;;5010881;28;20429;-68
2023/09/11 09:35:33;;;;;;;148.93;131.20;;;27.50;99.90;;;;;;5012756;28;20418;-68
2023/09/11 09:38:00;;;;;;;27.70;24.90;;;27.70;99.90;;;;;;5011062;28;20956;-68
2023/09/11 09:40:37;;;;;;;19.60;17.70;;;28.00;99.90;;;;;;5013723;28;20457;-68
2023/09/11 09:43:05;;;;;;;15.10;9.80;;;28.20;99.90;;;;;;5014661;28;20802;-67
2023/09/11 09:45:40;;;;;;;13.67;12.43;;;28.40;98.50;;;;;;5013655;28;20425;-67
2023/09/11 09:48:09;;;;;;;11.70;10.50;;;28.60;99.90;;;;;;5014053;28;20433;-67
2023/09/11 09:50:54;;;;;;;12.30;11.23;;;28.90;98.00;;;;;;5014776;28;20426;-68
2023/09/11 09:53:26;;;;;;;20.43;18.63;;;29.10;95.00;;;;;;5014217;28;20418;-74
2023/09/11 09:55:53;;;;;;;10.53;9.60;;;29.30;96.20;;;;;;5014390;28;20483;-70
2023/09/11 09:58:20;;;;;;;9.80;7.57;;;29.30;94.90;;;;;;5013343;28;20414;-71
2023/09/11 10:00:47;;;;;;;11.47;10.57;;;29.40;94.70;;;;;;5012779;28;20457;-70
2023/09/11 10:03:13;;;;;;;11.90;10.50;;;29.70;94.40;;;;;;5005619;28;20863;-73
2023/09/11 10:05:40;;;;;;;11.33;9.57;;;29.80;92.90;;;;;;5007354;28;20504;-73
2023/09/11 10:08:06;;;;;;;9.07;8.20;;;30.00;92.50;;;;;;4999516;28;20458;-67
2023/09/11 10:10:33;;;;;;;12.30;8.20;;;30.30;92.60;;;;;;5013701;28;20418;-70
2023/09/11 10:13:05;;;;;;;11.80;10.80;;;30.60;92.30;;;;;;5014737;28;20757;-66
2023/09/11 10:15:34;;;;;;;10.20;9.20;;;31.00;91.30;;;;;;5009968;28;20549;-65
2023/09/11 10:18:00;;;;;;;11.10;9.93;;;31.20;88.10;;;;;;5011004;28;20426;-66
2023/09/11 10:20:27;;;;;;;9.50;8.70;;;31.40;90.50;;;;;;5012471;28;20500;-66
2023/09/11 10:23:03;;;;;;;10.67;9.83;;;31.60;87.20;;;;;;5010592;28;20429;-63
2023/09/11 10:25:32;;;;;;;9.67;8.93;;;31.90;87.30;;;;;;5013067;28;20452;-65
2023/09/11 10:28:07;;;;;;;9.20;8.30;;;32.10;85.10;;;;;;5012527;28;20472;-65
2023/09/11 10:31:07;;;;;;;10.47;9.33;;;32.30;85.40;;;;;;5009724;28;20929;-66
2023/09/11 10:33:34;;;;;;;12.77;9.17;;;32.70;84.00;;;;;;5011189;28;20517;-66
2023/09/11 10:36:07;;;;;;;9.80;9.00;;;32.80;76.90;;;;;;5012949;28;20438;-66
2023/09/11 10:38:35;;;;;;;9.60;8.70;;;32.90;79.00;;;;;;5011796;28;20465;-66
2023/09/11 10:41:01;;;;;;;9.00;8.27;;;33.10;79.00;;;;;;5013376;28;20461;-66
2023/09/11 10:43:27;;;;;;;9.90;9.00;;;33.20;81.10;;;;;;5011736;28;20430;-65
2023/09/11 10:45:54;;;;;;;10.20;8.70;;;33.40;80.30;;;;;;5010500;28;20434;-65
2023/09/11 10:48:32;;;;;;;11.13;9.97;;;33.50;76.50;;;;;;5003776;28;20492;-65
2023/09/11 10:50:59;;;;;;;8.47;7.60;;;33.50;71.60;;;;;;5013840;28;20465;-66
2023/09/11 10:53:28;;;;;;;11.90;10.70;;;33.50;77.80;;;;;;5012550;28;20430;-65
2023/09/11 10:55:57;;;;;;;9.50;8.60;;;33.40;72.70;;;;;;5012309;28;20434;-66
2023/09/11 10:58:25;;;;;;;9.87;8.97;;;33.30;74.20;;;;;;5013207;28;20413;-65
2023/09/11 11:00:55;;;;;;;10.03;8.30;;;33.40;71.20;;;;;;5013067;28;20466;-63
2023/09/11 11:03:25;;;;;;;11.87;10.77;;;33.50;74.50;;;;;;5011353;28;20426;-65
2023/09/11 11:05:52;;;;;;;10.83;9.93;;;33.60;73.80;;;;;;5013066;28;20455;-65
2023/09/11 11:08:18;;;;;;;10.20;8.73;;;33.70;72.80;;;;;;5011505;28;20525;-65
2023/09/11 11:10:50;;;;;;;11.23;10.43;;;33.80;70.70;;;;;;5012872;28;20441;-66
2023/09/11 11:13:16;;;;;;;10.70;10.00;;;33.80;73.60;;;;;;5010996;28;20438;-65
2023/09/11 11:15:42;;;;;;;10.50;9.50;;;34.00;70.40;;;;;;5013511;28;20497;-66
2023/09/11 11:18:23;;;;;;;9.23;8.33;;;34.00;68.60;;;;;;5012269;28;20171;-65
2023/09/11 11:21:06;;;;;;;8.27;7.57;;;34.10;67.00;;;;;;5012801;28;20462;-66
2023/09/11 11:23:33;;;;;;;8.23;7.73;;;34.10;66.90;;;;;;5012871;28;20760;-65
2023/09/11 11:26:08;;;;;;;9.23;8.53;;;34.10;65.60;;;;;;5011439;28;20842;-66
2023/09/11 11:28:42;;;;;;;9.63;8.67;;;34.00;64.30;;;;;;5011904;28;20429;-63
2023/09/11 11:31:12;;;;;;;9.17;8.50;;;34.00;65.70;;;;;;5013025;28;20414;-63
2023/09/11 11:33:40;;;;;;;9.93;9.07;;;33.90;64.60;;;;;;5012218;28;20468;-66
2023/09/11 11:36:07;;;;;;;9.27;8.33;;;33.70;65.10;;;;;;5012006;28;20495;-64
2023/09/11 11:38:34;;;;;;;9.63;8.93;;;33.60;65.40;;;;;;5012486;28;20479;-64
2023/09/11 11:41:02;;;;;;;9.10;8.50;;;33.50;69.10;;;;;;5011865;28;20446;-64
2023/09/11 11:43:31;;;;;;;9.23;8.37;;;33.60;66.80;;;;;;5011773;28;20425;-66
2023/09/11 11:45:57;;;;;;;8.97;8.27;;;33.60;67.40;;;;;;5012377;28;20806;-65
2023/09/11 11:48:26;;;;;;;11.33;10.47;;;33.60;65.10;;;;;;5012481;28;20497;-65
2023/09/11 11:50:53;;;;;;;8.80;7.90;;;33.70;66.60;;;;;;5012239;28;20211;-65
2023/09/11 11:53:21;;;;;;;11.50;10.60;;;33.70;68.20;;;;;;5011716;28;20434;-65
2023/09/11 11:55:47;;;;;;;9.03;8.27;;;33.80;67.40;;;;;;5010099;28;20441;-70
2023/09/11 11:58:14;;;;;;;10.47;9.60;;;33.80;70.20;;;;;;5009512;28;20929;-66
2023/09/11 12:00:54;;;;;;;9.83;8.90;;;33.80;66.90;;;;;;5011564;28;20816;-67
2023/09/11 12:03:20;;;;;;;10.47;9.57;;;33.80;67.20;;;;;;5011393;28;20564;-67
2023/09/11 12:05:46;;;;;;;9.00;8.10;;;33.80;67.20;;;;;;4994380;28;20989;-74
2023/09/11 12:08:13;;;;;;;8.10;7.30;;;33.80;66.00;;;;;;5010279;28;20213;-67
2023/09/11 12:10:48;;;;;;;9.53;8.30;;;33.70;68.40;;;;;;5010805;28;20469;-68
2023/09/11 12:13:19;;;;;;;8.80;8.10;;;33.70;67.90;;;;;;5011143;28;20480;-65
2023/09/11 12:15:59;;;;;;;354.40;320.43;;;33.50;65.80;;;;;;5009757;28;20930;-70
2023/09/11 12:18:35;;;;;;;16.87;15.10;;;33.50;68.90;;;;;;5008810;28;20482;-67
2023/09/11 12:21:06;;;;;;;9.97;9.17;;;33.40;70.70;;;;;;5009027;28;20924;-67
2023/09/11 12:23:33;;;;;;;457.03;417.10;;;33.20;68.40;;;;;;5006318;28;20423;-68
2023/09/11 12:26:01;;;;;;;24.50;22.10;;;33.10;68.10;;;;;;5011328;28;20430;-67
2023/09/11 12:28:27;;;;;;;10.60;9.50;;;33.00;66.60;;;;;;4994688;28;20430;-68
2023/09/11 12:30:54;;;;;;;9.80;9.10;;;33.00;68.20;;;;;;5011068;28;20465;-68